Change the Weather History Date:

Wednesday, March 6, 2013

  Actual Average (KAPA) Record (KAPA)
Temperature  
Mean Temperature 38 °F -  
Max Temperature 51 °F 47 °F 70 °F (2012)
Min Temperature 26 °F 22 °F 15 °F (2008)
Degree Days  
Heating Degree Days 26    
Moisture  
Dew Point 17 °F    
Average Humidity 43    
Maximum Humidity 80    
Minimum Humidity 24    
Precipitation  
Precipitation 0.00 in - - ()
Sea Level Pressure  
Sea Level Pressure 29.97 in    
Wind  
Wind Speed 9 mph (SSW)    
Max Wind Speed 15 mph    
Max Gust Speed 21 mph    
Visibility 10 miles    
Events      
Averages and records for this station are not official NWS values.
T = Trace of Precipitation, MM = Missing Value Source: NWS Daily Summary

Daily Weather History Graph

Daily Weather History Graph

Search for Another Location

Airport or City:

Trip Planner

Search our weather history database for the weather conditions in past years. The results will help you decide how hot, cold, wet, or windy it might be!

Date:

Astronomy

Mar. 06, 2013 Rise Set
Actual Time 6:23 AM MST 5:56 PM MST
Civil Twilight 5:56 AM MST 6:23 PM MST
Nautical Twilight 5:25 AM MST 6:54 PM MST
Astronomical Twilight 4:54 AM MST 7:25 PM MST
Moon 2:33 AM MST (3/6) 12:42 PM MST (3/6)
Length of Visible Light 12h 26m
Length of Day
11h 33m
Waning Crescent, 29% of the Moon is Illuminated
Mar 6
Waning Crescent
Mar 11
New
Mar 19
First Quarter
Mar 27
Full
Apr 2
Last Quarter

Hourly Weather History & Observations

Time (MST) Temp. Windchill Dew Point Humidity Pressure Visibility Wind Dir Wind Speed Gust Speed Precip Events Conditions
12:14 AM 26.6 °F 16.2 °F 21.2 °F 80% 30.08 in 10.0 mi SSW 11.5 mph - N/A   Clear
12:31 AM 30.2 °F 21.3 °F 21.2 °F 69% 30.08 in 10.0 mi SSW 10.4 mph - N/A   Clear
12:49 AM 33.8 °F 25.8 °F 12.2 °F 41% 30.08 in 10.0 mi SW 10.4 mph - N/A   Clear
1:14 AM 30.2 °F 22.6 °F 14.0 °F 51% 30.08 in 10.0 mi SSW 8.1 mph - N/A   Clear
1:31 AM 30.2 °F 21.9 °F 12.2 °F 47% 30.07 in 10.0 mi SSW 9.2 mph - N/A   Clear
1:54 AM 28.4 °F 22.2 °F 12.2 °F 51% 30.07 in 10.0 mi SSW 5.8 mph - N/A   Clear
2:09 AM 28.4 °F 24.6 °F 12.2 °F 51% 30.07 in 10.0 mi South 3.5 mph - N/A   Clear
2:34 AM 32.0 °F 25.6 °F 8.6 °F 38% 30.05 in 10.0 mi SW 6.9 mph - N/A   Clear
2:48 AM 30.2 °F 20.2 °F 10.4 °F 44% 30.05 in 10.0 mi SW 12.7 mph - N/A   Clear
3:14 AM 35.6 °F - 5.0 °F 28% 30.04 in 10.0 mi Calm Calm - N/A   Clear
3:34 AM 37.4 °F 30.3 °F 3.2 °F 24% 30.03 in 10.0 mi SW 10.4 mph 17.3 mph N/A   Clear
3:53 AM 35.6 °F 32.8 °F 5.0 °F 28% 30.04 in 10.0 mi SW 3.5 mph - N/A   Clear
4:12 AM 33.8 °F 27.0 °F 5.0 °F 30% 30.03 in 10.0 mi WSW 8.1 mph - N/A   Clear
4:34 AM 37.4 °F 30.8 °F 3.2 °F 24% 30.04 in 10.0 mi SW 9.2 mph - N/A   Clear
4:51 AM 37.4 °F 29.3 °F 5.0 °F 26% 30.04 in 10.0 mi SW 12.7 mph 20.7 mph N/A   Clear
5:14 AM 37.4 °F 30.8 °F 8.6 °F 30% 30.04 in 10.0 mi WSW 9.2 mph - N/A   Clear
5:34 AM 35.6 °F 26.2 °F 8.6 °F 33% 30.03 in 10.0 mi WSW 15.0 mph 18.4 mph N/A   Clear
5:54 AM 35.6 °F 28.0 °F 10.4 °F 35% 30.03 in 10.0 mi WSW 10.4 mph - N/A   Clear
6:12 AM 35.6 °F 29.9 °F 8.6 °F 33% 30.03 in 10.0 mi WSW 6.9 mph - N/A   Clear
6:33 AM 37.4 °F 34.9 °F 8.6 °F 30% 30.03 in 10.0 mi SSW 3.5 mph - N/A   Clear
6:54 AM 35.6 °F 30.7 °F 5.0 °F 28% 30.03 in 10.0 mi SW 5.8 mph - N/A   Clear
7:12 AM 37.4 °F 30.8 °F 10.4 °F 33% 30.02 in 10.0 mi WSW 9.2 mph - N/A   Clear
7:32 AM 37.4 °F 30.3 °F 12.2 °F 36% 30.03 in 10.0 mi WSW 10.4 mph - N/A   Clear
7:51 AM 37.4 °F 31.4 °F 10.4 °F 33% 30.03 in 10.0 mi SW 8.1 mph - N/A   Clear
8:14 AM 39.2 °F 35.0 °F 10.4 °F 31% 30.03 in 10.0 mi SW 5.8 mph - N/A   Clear
8:34 AM 39.2 °F - 12.2 °F 33% 30.03 in 10.0 mi Calm Calm - N/A   Clear
8:54 AM 39.2 °F 37.0 °F 12.2 °F 33% 30.03 in 10.0 mi SE 3.5 mph - N/A   Clear
9:11 AM 37.4 °F 32.8 °F 17.6 °F 45% 30.02 in 10.0 mi WSW 5.8 mph - N/A   Clear
9:29 AM 41.0 °F 38.0 °F 12.2 °F 31% 30.02 in 10.0 mi WSW 4.6 mph - N/A   Clear
9:53 AM 42.8 °F 41.1 °F 10.4 °F 27% 30.02 in 10.0 mi South 3.5 mph - N/A   Clear
10:11 AM 42.8 °F 39.3 °F 12.2 °F 29% 30.01 in 10.0 mi SW 5.8 mph - N/A   Clear
10:33 AM 44.6 °F - 15.8 °F 31% 30.01 in 10.0 mi Calm Calm - N/A   Clear
10:54 AM 44.6 °F 43.1 °F 12.2 °F 27% 30.00 in 10.0 mi SSE 3.5 mph - N/A   Clear
11:12 AM 46.4 °F 42.9 °F 17.6 °F 32% 30.00 in 10.0 mi ESE 6.9 mph - N/A   Clear
11:33 AM 48.2 °F - 17.6 °F 30% 30.00 in 10.0 mi ESE 8.1 mph - N/A   Clear
11:54 AM 44.6 °F 39.7 °F 21.2 °F 39% 29.99 in 10.0 mi East 9.2 mph - N/A   Clear
12:09 PM 46.4 °F 41.9 °F 19.4 °F 34% 29.97 in 10.0 mi East 9.2 mph - N/A   Clear
12:33 PM 50.0 °F - 21.2 °F 32% 29.96 in 10.0 mi ESE 9.2 mph - N/A   Clear
12:54 PM 50.0 °F - 19.4 °F 30% 29.94 in 10.0 mi East 8.1 mph - N/A   Clear
1:09 PM 50.0 °F - 17.6 °F 28% 29.93 in 10.0 mi East 9.2 mph - N/A   Clear
1:29 PM 50.0 °F - 21.2 °F 32% 29.92 in 10.0 mi East 9.2 mph - N/A   Clear
1:49 PM 50.0 °F - 17.6 °F 28% 29.92 in 10.0 mi ESE 9.2 mph - N/A   Clear
2:09 PM 50.0 °F - 19.4 °F 30% 29.92 in 10.0 mi ESE 9.2 mph - N/A   Clear
2:34 PM 50.0 °F - 21.2 °F 32% 29.91 in 10.0 mi East 9.2 mph - N/A   Clear
3:14 PM 51.8 °F - 23.0 °F 33% 29.91 in 10.0 mi SE 9.2 mph - N/A   Clear
3:34 PM 51.8 °F - 23.0 °F 33% 29.90 in 10.0 mi SE 11.5 mph - N/A   Clear
3:49 PM 51.8 °F - 23.0 °F 33% 29.89 in 10.0 mi SE 13.8 mph - N/A   Clear
4:14 PM 46.4 °F 41.1 °F 24.8 °F 43% 29.89 in 10.0 mi SSE 11.5 mph 17.3 mph N/A   Clear
4:28 PM 50.0 °F - 26.6 °F 40% 29.89 in 10.0 mi SE 6.9 mph - N/A   Clear
4:54 PM 44.6 °F 38.4 °F 30.2 °F 57% 29.88 in 10.0 mi SSE 12.7 mph - N/A   Clear
5:14 PM 44.6 °F 38.1 °F 30.2 °F 57% 29.89 in 10.0 mi SSE 13.8 mph - N/A   Clear
5:32 PM 44.6 °F 39.2 °F 28.4 °F 53% 29.89 in 10.0 mi SSE 10.4 mph - N/A   Clear
5:54 PM 42.8 °F 35.8 °F 28.4 °F 57% 29.89 in 10.0 mi South 13.8 mph - N/A   Clear
6:14 PM 37.4 °F 29.3 °F 28.4 °F 70% 29.89 in 10.0 mi South 12.7 mph - N/A   Clear
6:29 PM 35.6 °F 27.5 °F 28.4 °F 75% 29.90 in 10.0 mi South 11.5 mph - N/A   Clear
6:48 PM 35.6 °F 27.1 °F 28.4 °F 75% 29.91 in 10.0 mi SSW 12.7 mph - N/A   Clear
7:34 PM 37.4 °F 28.5 °F 26.6 °F 65% 29.91 in 10.0 mi SW 15.0 mph - N/A   Clear
7:54 PM 37.4 °F 30.8 °F 26.6 °F 65% 29.90 in 10.0 mi SSW 9.2 mph - N/A   Clear
8:07 PM 35.6 °F 28.0 °F 26.6 °F 70% 29.90 in 10.0 mi SSW 10.4 mph - N/A   Clear
8:32 PM 35.6 °F 27.1 °F 24.8 °F 65% 29.90 in 10.0 mi SSW 12.7 mph 16.1 mph N/A   Clear
8:54 PM 37.4 °F 30.3 °F 24.8 °F 60% 29.91 in 10.0 mi SSW 10.4 mph - N/A   Clear
9:14 PM 35.6 °F 27.1 °F 24.8 °F 65% 29.91 in 10.0 mi SSW 12.7 mph 16.1 mph N/A   Clear
9:32 PM 35.6 °F 28.0 °F 24.8 °F 65% 29.91 in 10.0 mi SSW 10.4 mph - N/A   Clear
9:51 PM 35.6 °F 27.5 °F 23.0 °F 60% 29.91 in 10.0 mi SSW 11.5 mph - N/A   Clear
10:11 PM 39.2 °F 31.6 °F 23.0 °F 52% 29.91 in 10.0 mi SW 12.7 mph - N/A   Clear
10:33 PM 37.4 °F 29.8 °F 21.2 °F 52% 29.90 in 10.0 mi SW 11.5 mph - N/A   Clear
10:54 PM 37.4 °F 30.3 °F 21.2 °F 52% 29.90 in 10.0 mi SW 10.4 mph - N/A   Clear
11:14 PM 37.4 °F 30.8 °F 17.6 °F 45% 29.91 in 10.0 mi SW 9.2 mph - N/A   Clear
11:31 PM 39.2 °F 32.0 °F 17.6 °F 42% 29.91 in 10.0 mi WSW 11.5 mph - N/A   Clear
11:54 PM 39.2 °F 32.5 °F 17.6 °F 42% 29.90 in 10.0 mi SSW 10.4 mph - N/A   Clear